createdAt,value
2022-10-11T00:01:46.400Z,16.23
2022-10-11T00:04:15.775Z,17.60
2022-10-11T00:06:44.377Z,17.37
2022-10-11T00:09:12.277Z,17.80
2022-10-11T00:11:46.735Z,17.30
2022-10-11T00:14:14.640Z,17.65
2022-10-11T00:16:44.798Z,17.12
2022-10-11T00:19:13.405Z,18.83
2022-10-11T00:21:41.796Z,18.03
2022-10-11T00:24:11.092Z,17.92
2022-10-11T00:26:44.397Z,17.20
2022-10-11T00:29:16.952Z,17.05
2022-10-11T00:31:44.669Z,18.33
2022-10-11T00:34:14.242Z,18.00
2022-10-11T00:36:43.142Z,17.65
2022-10-11T00:39:14.318Z,18.33
2022-10-11T00:41:43.692Z,17.58
2022-10-11T00:44:17.874Z,18.10
2022-10-11T00:46:57.502Z,17.50
2022-10-11T00:49:47.327Z,16.15
2022-10-11T00:52:46.116Z,17.42
2022-10-11T00:55:17.459Z,17.45
2022-10-11T00:57:48.560Z,16.40
2022-10-11T01:00:19.307Z,17.73
2022-10-11T01:02:47.880Z,16.73
2022-10-11T01:05:29.293Z,16.90
2022-10-11T01:08:01.570Z,16.30
2022-10-11T01:10:30.422Z,16.35
2022-10-11T01:13:25.335Z,16.73
2022-10-11T01:16:12.878Z,16.35
2022-10-11T01:19:06.983Z,16.17
2022-10-11T01:21:42.727Z,16.95
2022-10-11T01:24:42.749Z,17.37
2022-10-11T01:27:41.446Z,16.70
2022-10-11T01:30:20.630Z,16.48
2022-10-11T01:33:13.454Z,17.00
2022-10-11T01:35:50.715Z,16.77
2022-10-11T01:38:39.710Z,16.75
2022-10-11T01:41:29.126Z,16.70
2022-10-11T01:44:00.375Z,15.20
2022-10-11T01:46:30.388Z,17.27
2022-10-11T01:49:00.736Z,15.95
2022-10-11T01:51:45.101Z,16.50
2022-10-11T01:54:57.001Z,16.37
2022-10-11T01:57:53.786Z,16.55
2022-10-11T02:00:24.742Z,16.33
2022-10-11T02:03:06.340Z,16.40
2022-10-11T02:05:46.854Z,16.90
2022-10-11T02:08:24.243Z,17.27
2022-10-11T02:11:01.271Z,15.20
2022-10-11T02:13:47.006Z,16.08
2022-10-11T02:16:19.267Z,15.85
2022-10-11T02:18:50.040Z,16.05
2022-10-11T02:21:20.006Z,15.40
2022-10-11T02:23:58.927Z,15.38
2022-10-11T02:26:30.578Z,16.15
2022-10-11T02:29:02.247Z,15.73
2022-10-11T02:31:33.214Z,14.98
2022-10-11T02:38:38.618Z,15.70
2022-10-11T02:41:34.559Z,14.70
2022-10-11T02:44:20.389Z,14.98
2022-10-11T02:46:50.155Z,16.12
2022-10-11T02:49:18.886Z,16.07
2022-10-11T02:51:50.858Z,15.70
2022-10-11T02:54:20.427Z,15.75
2022-10-11T02:56:48.177Z,14.60
2022-10-11T02:59:16.713Z,14.32
2022-10-11T03:01:45.759Z,15.00
2022-10-11T03:04:15.483Z,14.45
2022-10-11T03:06:43.663Z,14.98
2022-10-11T03:09:12.324Z,15.43
2022-10-11T03:11:40.560Z,13.45
2022-10-11T03:14:09.186Z,13.27
2022-10-11T03:16:37.912Z,14.50
2022-10-11T03:19:05.707Z,15.38
2022-10-11T03:21:34.246Z,14.48
2022-10-11T03:24:02.597Z,17.48
2022-10-11T03:26:30.738Z,18.70
2022-10-11T03:28:59.289Z,17.20
2022-10-11T03:31:28.510Z,14.93
2022-10-11T03:33:57.060Z,14.70
2022-10-11T03:36:25.147Z,18.98
2022-10-11T03:38:54.757Z,17.23
2022-10-11T03:41:30.865Z,16.55
2022-10-11T03:43:59.629Z,17.98
2022-10-11T03:46:27.228Z,16.65
2022-10-11T03:48:55.560Z,16.55
2022-10-11T03:51:24.481Z,16.83
2022-10-11T03:53:52.741Z,15.65
2022-10-11T03:56:22.510Z,16.75
2022-10-11T03:58:51.216Z,17.15
2022-10-11T04:01:20.409Z,16.75
2022-10-11T04:03:49.410Z,15.63
2022-10-11T04:06:21.094Z,15.30
2022-10-11T04:08:50.388Z,15.38
2022-10-11T04:11:21.137Z,14.85
2022-10-11T04:13:52.289Z,14.68
2022-10-11T04:16:21.738Z,14.13
2022-10-11T04:18:51.684Z,13.93
2022-10-11T04:21:20.711Z,13.82
2022-10-11T04:23:50.823Z,13.07
2022-10-11T04:26:19.036Z,12.98
2022-10-11T04:28:47.463Z,13.00
2022-10-11T04:31:18.588Z,12.88
2022-10-11T04:33:47.916Z,13.00
2022-10-11T04:36:16.321Z,12.13
2022-10-11T04:38:44.975Z,12.23
2022-10-11T04:41:21.807Z,11.20
2022-10-11T04:43:52.374Z,12.00
2022-10-11T04:46:23.657Z,11.30
2022-10-11T04:48:55.452Z,11.95
2022-10-11T04:51:26.215Z,11.70
2022-10-11T04:53:57.935Z,11.73
2022-10-11T04:56:28.288Z,12.27
2022-10-11T04:58:57.920Z,12.30
2022-10-11T05:01:28.749Z,13.70
2022-10-11T05:03:58.372Z,13.82
2022-10-11T05:06:30.006Z,14.90
2022-10-11T05:09:01.393Z,16.42
2022-10-11T05:11:36.727Z,54.75
2022-10-11T05:14:45.533Z,69.15
2022-10-11T05:21:44.968Z,14.57
2022-10-11T05:24:44.771Z,13.00
2022-10-11T05:27:16.731Z,13.10
2022-10-11T05:29:49.101Z,12.43
2022-10-11T05:32:19.884Z,13.23
2022-10-11T05:38:08.686Z,12.40
2022-10-11T05:40:41.578Z,13.57
2022-10-11T05:43:34.788Z,15.80
2022-10-11T05:46:09.106Z,16.08
2022-10-11T05:48:41.475Z,16.27
2022-10-11T05:51:12.072Z,14.73
2022-10-11T05:54:04.369Z,13.62
2022-10-11T05:56:37.748Z,13.20
2022-10-11T05:59:38.194Z,12.75
2022-10-11T06:02:28.458Z,12.10
2022-10-11T06:05:25.732Z,11.70
2022-10-11T06:08:12.808Z,11.75
2022-10-11T06:11:26.413Z,11.23
2022-10-11T06:14:17.521Z,10.93
2022-10-11T06:21:20.878Z,11.00
2022-10-11T06:27:52.967Z,13.13
2022-10-11T06:30:55.287Z,11.68
2022-10-11T06:33:26.989Z,13.00
2022-10-11T06:36:11.029Z,14.07
2022-10-11T06:38:48.645Z,17.17
2022-10-11T06:41:34.615Z,17.77
2022-10-11T06:44:14.885Z,14.65
2022-10-11T06:46:48.782Z,12.10
2022-10-11T06:49:23.512Z,11.52
2022-10-11T06:51:55.414Z,10.30
2022-10-11T06:54:58.007Z,10.13
2022-10-11T06:57:49.222Z,10.70
2022-10-11T07:06:05.628Z,8.80
2022-10-11T07:12:49.160Z,8.32
2022-10-11T07:15:42.026Z,8.15
2022-10-11T07:23:01.359Z,8.32
2022-10-11T07:25:57.473Z,8.23
2022-10-11T07:29:04.049Z,6.78
2022-10-11T07:31:52.883Z,6.68
2022-10-11T07:34:27.363Z,6.90
2022-10-11T07:37:03.617Z,5.62
2022-10-11T07:40:02.039Z,6.53
2022-10-11T07:43:58.165Z,5.90
2022-10-11T07:47:20.783Z,5.30
2022-10-11T07:50:16.006Z,5.17
2022-10-11T07:53:41.808Z,5.60
2022-10-11T07:57:30.843Z,5.30
2022-10-11T08:00:28.867Z,4.78
2022-10-11T08:03:21.850Z,5.07
2022-10-11T08:06:31.929Z,5.93
2022-10-11T08:14:05.775Z,5.80
2022-10-11T08:17:57.390Z,5.53
2022-10-11T08:21:34.468Z,5.32
2022-10-11T08:24:41.679Z,5.17
2022-10-11T08:27:36.179Z,4.80
2022-10-11T08:30:15.580Z,5.45
2022-10-11T08:33:25.301Z,5.30
2022-10-11T08:37:05.337Z,5.45
2022-10-11T08:39:55.965Z,5.70
2022-10-11T08:43:09.880Z,5.55
2022-10-11T08:57:37.911Z,5.37
2022-10-11T09:00:36.294Z,6.37
2022-10-11T09:08:38.653Z,6.25
2022-10-11T09:12:53.492Z,6.07
2022-10-11T09:16:16.662Z,5.63
2022-10-11T09:26:32.258Z,5.97
2022-10-11T09:29:29.621Z,5.30
2022-10-11T09:32:18.444Z,5.13
2022-10-11T09:34:56.126Z,6.12
2022-10-11T09:41:08.453Z,5.07
2022-10-11T09:43:37.460Z,5.18
2022-10-11T09:50:24.021Z,5.50
2022-10-11T09:53:33.303Z,5.50
2022-10-11T09:56:16.493Z,5.62
2022-10-11T09:59:08.790Z,6.12
2022-10-11T10:06:35.754Z,5.20
2022-10-11T10:09:51.451Z,4.85
2022-10-11T10:12:55.375Z,5.10
2022-10-11T10:15:40.006Z,5.80
2022-10-11T10:18:24.560Z,5.40
2022-10-11T10:21:00.627Z,5.05
2022-10-11T10:23:47.878Z,5.00
2022-10-11T10:26:21.646Z,5.12
2022-10-11T10:29:08.275Z,5.25
2022-10-11T10:38:54.637Z,5.43
2022-10-11T10:41:35.125Z,5.22
2022-10-11T10:44:05.953Z,5.45
2022-10-11T10:46:56.175Z,5.83
2022-10-11T10:50:10.408Z,5.72
2022-10-11T10:53:04.722Z,4.70
2022-10-11T10:56:14.023Z,4.28
2022-10-11T10:58:54.823Z,4.20
2022-10-11T11:16:23.196Z,5.15
2022-10-11T11:19:38.068Z,5.03
2022-10-11T11:31:21.454Z,5.00
2022-10-11T11:34:46.163Z,4.57
2022-10-11T11:37:59.348Z,5.30
2022-10-11T11:41:19.236Z,5.20
2022-10-11T11:44:27.301Z,5.32
2022-10-11T11:47:19.911Z,5.47
2022-10-11T11:50:31.559Z,4.85
2022-10-11T11:53:45.373Z,5.32
2022-10-11T11:56:40.883Z,6.03
2022-10-11T11:59:50.987Z,5.47
2022-10-11T12:07:14.938Z,5.37
2022-10-11T12:10:29.726Z,5.32
2022-10-11T12:14:03.106Z,5.13
2022-10-11T12:21:20.532Z,6.00
2022-10-11T12:24:37.521Z,5.10
2022-10-11T12:28:27.990Z,6.47
2022-10-11T12:38:36.961Z,6.40
2022-10-11T12:41:16.567Z,5.40
2022-10-11T12:44:38.477Z,5.90
2022-10-11T12:51:50.321Z,5.85
2022-10-11T12:54:28.031Z,5.53
2022-10-11T12:57:35.556Z,6.15
2022-10-11T13:00:55.206Z,5.50
2022-10-11T13:03:36.813Z,5.30
2022-10-11T13:06:19.584Z,5.28
2022-10-11T13:08:58.165Z,5.95
2022-10-11T13:11:34.096Z,5.65
2022-10-11T13:17:42.113Z,5.30
2022-10-11T13:20:19.271Z,5.70
2022-10-11T13:22:53.841Z,6.53
2022-10-11T13:25:30.762Z,5.50
2022-10-11T13:28:01.942Z,5.70
2022-10-11T13:30:34.944Z,5.70
2022-10-11T13:33:10.108Z,5.62
2022-10-11T13:35:42.200Z,5.68
2022-10-11T13:38:34.177Z,6.12
2022-10-11T13:41:08.185Z,5.70
2022-10-11T13:43:36.662Z,5.53
2022-10-11T13:46:13.535Z,5.95
2022-10-11T13:48:41.384Z,6.15
2022-10-11T13:51:14.486Z,5.95
2022-10-11T13:54:22.021Z,5.93
2022-10-11T13:57:14.135Z,5.50
2022-10-11T13:59:50.850Z,5.97
2022-10-11T14:02:22.331Z,5.65
2022-10-11T14:04:50.990Z,5.87
2022-10-11T14:07:37.850Z,5.32
2022-10-11T14:10:07.202Z,5.60
2022-10-11T14:12:39.796Z,5.87
2022-10-11T14:15:27.014Z,5.43
2022-10-11T14:17:55.068Z,5.50
2022-10-11T14:20:30.870Z,6.12
2022-10-11T14:23:01.602Z,5.17
2022-10-11T14:25:30.689Z,5.70
2022-10-11T14:27:59.777Z,6.18
2022-10-11T14:30:28.019Z,6.47
2022-10-11T14:32:59.906Z,5.47
2022-10-11T14:35:31.900Z,6.30
2022-10-11T14:38:01.010Z,6.25
2022-10-11T14:40:31.100Z,7.40
2022-10-11T14:43:00.051Z,7.43
2022-10-11T14:45:28.283Z,7.75
2022-10-11T14:47:57.923Z,7.33
2022-10-11T14:50:34.784Z,7.30
2022-10-11T14:53:03.935Z,7.45
2022-10-11T14:55:32.768Z,7.40
2022-10-11T14:58:00.583Z,7.50
2022-10-11T15:00:30.421Z,7.10
2022-10-11T15:02:58.215Z,7.65
2022-10-11T15:05:32.678Z,7.60
2022-10-11T15:08:03.576Z,9.63
2022-10-11T15:10:35.981Z,101.75
2022-10-11T15:13:05.186Z,33.47
2022-10-11T15:15:36.324Z,16.15
2022-10-11T15:18:07.097Z,31.10
2022-10-11T15:20:45.037Z,70.68
2022-10-11T15:23:12.958Z,26.30
2022-10-11T15:25:42.250Z,72.40
2022-10-11T15:28:21.667Z,31.42
2022-10-11T15:30:50.090Z,17.05
2022-10-11T15:33:17.628Z,19.23
2022-10-11T15:35:45.999Z,14.55
2022-10-11T15:38:21.365Z,10.73
2022-10-11T15:40:49.599Z,9.48
2022-10-11T15:43:22.009Z,11.68
2022-10-11T15:45:52.406Z,15.20
2022-10-11T15:48:21.997Z,19.83
2022-10-11T15:50:50.390Z,18.47
2022-10-11T15:53:30.713Z,19.90
2022-10-11T15:56:06.051Z,19.27
2022-10-11T15:58:39.350Z,16.85
2022-10-11T16:01:09.898Z,19.17
2022-10-11T16:03:37.876Z,19.60
2022-10-11T16:06:06.005Z,19.77
2022-10-11T16:08:34.463Z,32.15
2022-10-11T16:11:04.001Z,38.63
2022-10-11T16:13:31.935Z,48.90
2022-10-11T16:16:01.738Z,41.93
2022-10-11T16:18:35.106Z,32.55
2022-10-11T16:21:09.006Z,21.87
2022-10-11T16:23:37.761Z,12.07
2022-10-11T16:26:07.634Z,13.38
2022-10-11T16:28:35.871Z,11.93
2022-10-11T16:31:08.575Z,11.68
2022-10-11T16:33:45.714Z,12.68
2022-10-11T16:36:32.585Z,11.98
2022-10-11T16:39:04.749Z,23.70
2022-10-11T16:41:32.720Z,26.10
2022-10-11T16:44:01.961Z,26.08
2022-10-11T16:46:29.582Z,20.73
2022-10-11T16:48:57.585Z,16.33
2022-10-11T16:51:25.420Z,16.75
2022-10-11T16:53:53.871Z,15.80
2022-10-11T16:56:24.187Z,17.27
2022-10-11T16:58:52.988Z,19.98
2022-10-11T17:01:21.622Z,20.10
2022-10-11T17:03:50.211Z,21.62
2022-10-11T17:06:18.838Z,22.97
2022-10-11T17:08:46.848Z,22.45
2022-10-11T17:11:16.789Z,19.90
2022-10-11T17:13:45.576Z,18.52
2022-10-11T17:16:13.986Z,16.80
2022-10-11T17:18:41.969Z,15.50
2022-10-11T17:21:13.322Z,16.27
2022-10-11T17:23:41.993Z,17.70
2022-10-11T17:26:16.007Z,17.25
2022-10-11T17:28:44.350Z,17.80
2022-10-11T17:31:12.113Z,16.63
2022-10-11T17:33:39.729Z,16.90
2022-10-11T17:36:22.665Z,17.02
2022-10-11T17:38:52.301Z,17.48
2022-10-11T17:41:21.277Z,17.75
2022-10-11T17:43:48.886Z,16.20
2022-10-11T17:46:17.707Z,16.90
2022-10-11T17:48:45.723Z,16.27
2022-10-11T17:51:16.305Z,16.42
2022-10-11T17:53:44.904Z,17.75
2022-10-11T17:56:15.465Z,15.47
2022-10-11T17:58:43.679Z,15.93
2022-10-11T18:01:19.466Z,15.32
2022-10-11T18:04:01.977Z,15.40
2022-10-11T18:06:32.690Z,13.57
2022-10-11T18:09:02.086Z,13.80
2022-10-11T18:11:30.540Z,13.80
2022-10-11T18:13:58.813Z,14.10
2022-10-11T18:16:35.385Z,13.95
2022-10-11T18:19:05.980Z,12.68
2022-10-11T18:21:34.930Z,13.37
2022-10-11T18:24:08.161Z,12.50
2022-10-11T18:26:44.005Z,12.98
2022-10-11T18:29:12.743Z,12.35
2022-10-11T18:31:41.491Z,12.73
2022-10-11T18:34:11.008Z,12.87
2022-10-11T18:36:39.500Z,12.70
2022-10-11T18:39:09.877Z,12.68
2022-10-11T18:41:38.729Z,13.27
2022-10-11T18:44:11.044Z,12.77
2022-10-11T18:46:39.960Z,12.40
2022-10-11T18:49:09.514Z,15.05
2022-10-11T18:51:41.967Z,15.73
2022-10-11T18:54:13.959Z,15.35
2022-10-11T18:56:46.126Z,14.75
2022-10-11T18:59:14.242Z,15.73
2022-10-11T19:01:44.187Z,12.82
2022-10-11T19:04:16.056Z,13.13
2022-10-11T19:06:47.782Z,15.27
2022-10-11T19:09:23.842Z,21.08
2022-10-11T19:11:54.490Z,18.03
2022-10-11T19:14:29.319Z,15.68
2022-10-11T19:16:57.415Z,14.40
2022-10-11T19:19:27.461Z,11.27
2022-10-11T19:21:55.541Z,16.10
2022-10-11T19:24:24.884Z,16.27
2022-10-11T19:26:58.388Z,16.17
2022-10-11T19:29:29.087Z,14.95
2022-10-11T19:31:58.774Z,14.20
2022-10-11T19:34:27.839Z,14.25
2022-10-11T19:36:56.621Z,14.40
2022-10-11T19:39:25.536Z,13.13
2022-10-11T19:41:53.284Z,13.75
2022-10-11T19:44:20.864Z,12.37
2022-10-11T19:46:52.747Z,12.65
2022-10-11T19:49:24.922Z,11.73
2022-10-11T19:51:55.840Z,12.52
2022-10-11T19:54:23.769Z,11.57
2022-10-11T19:56:51.586Z,12.30
2022-10-11T19:59:19.782Z,10.70
2022-10-11T20:01:52.291Z,10.60
2022-10-11T20:04:50.663Z,10.15
2022-10-11T20:07:09.796Z,10.98
2022-10-11T20:09:38.432Z,11.63
2022-10-11T20:12:06.261Z,10.02
2022-10-11T20:14:34.895Z,11.60
2022-10-11T20:17:03.607Z,10.18
2022-10-11T20:19:31.958Z,10.63
2022-10-11T20:22:00.840Z,10.70
2022-10-11T20:24:32.973Z,10.50
2022-10-11T20:27:05.430Z,10.83
2022-10-11T20:29:34.431Z,10.93
2022-10-11T20:32:02.052Z,10.20
2022-10-11T20:34:29.590Z,9.70
2022-10-11T20:36:57.557Z,10.18
2022-10-11T20:39:25.448Z,10.63
2022-10-11T20:41:53.109Z,10.82
2022-10-11T20:44:21.705Z,11.07
2022-10-11T20:46:49.815Z,10.45
2022-10-11T20:49:20.062Z,10.80
2022-10-11T20:51:48.559Z,10.60
2022-10-11T20:54:16.437Z,10.40
2022-10-11T20:56:44.485Z,10.90
2022-10-11T20:59:12.333Z,13.68
2022-10-11T21:01:40.847Z,12.07
2022-10-11T21:04:18.806Z,12.40
2022-10-11T21:06:49.933Z,11.30
2022-10-11T21:09:17.685Z,12.85
2022-10-11T21:11:45.556Z,11.52
2022-10-11T21:14:13.508Z,11.02
2022-10-11T21:16:41.211Z,12.10
2022-10-11T21:19:13.295Z,11.25
2022-10-11T21:21:41.388Z,11.80
2022-10-11T21:24:08.948Z,11.32
2022-10-11T21:26:36.537Z,11.12
2022-10-11T21:29:04.465Z,12.10
2022-10-11T21:31:34.420Z,11.60
2022-10-11T21:34:03.337Z,11.35
2022-10-11T21:36:31.235Z,11.57
2022-10-11T21:38:58.896Z,12.73
2022-10-11T21:41:29.157Z,14.17
2022-10-11T21:43:58.058Z,15.20
2022-10-11T21:46:47.665Z,15.48
2022-10-11T21:49:16.936Z,15.90
2022-10-11T21:51:45.261Z,17.87
2022-10-11T21:54:12.868Z,16.97
2022-10-11T21:56:42.041Z,16.87
2022-10-11T21:59:12.324Z,16.12
2022-10-11T22:01:42.045Z,13.95
2022-10-11T22:04:10.684Z,14.10
2022-10-11T22:06:38.466Z,13.50
2022-10-11T22:09:07.405Z,13.35
2022-10-11T22:11:35.604Z,13.80
2022-10-11T22:14:03.315Z,13.20
2022-10-11T22:16:31.041Z,13.15
2022-10-11T22:19:00.097Z,12.80
2022-10-11T22:21:27.847Z,12.63
2022-10-11T22:23:55.517Z,12.57
2022-10-11T22:26:27.160Z,12.65
2022-10-11T22:28:54.734Z,13.55
2022-10-11T22:31:23.341Z,12.83
2022-10-11T22:33:56.692Z,13.23
2022-10-11T22:36:24.406Z,13.68
2022-10-11T22:38:53.039Z,13.77
2022-10-11T22:41:20.699Z,13.80
2022-10-11T22:43:49.147Z,14.50
2022-10-11T22:46:17.558Z,20.05
2022-10-11T22:48:45.172Z,17.77
2022-10-11T22:51:16.075Z,15.40
2022-10-11T22:53:43.964Z,19.10
2022-10-11T22:56:11.694Z,18.77
2022-10-11T22:58:39.934Z,18.12
2022-10-11T23:01:09.361Z,17.27
2022-10-11T23:03:37.175Z,15.93
2022-10-11T23:06:05.250Z,16.80
2022-10-11T23:08:33.594Z,17.53
2022-10-11T23:11:07.666Z,19.77
2022-10-11T23:13:35.774Z,20.62
2022-10-11T23:16:11.035Z,18.42
2022-10-11T23:18:39.006Z,15.43
2022-10-11T23:21:07.285Z,14.03
2022-10-11T23:23:35.388Z,16.87
2022-10-11T23:26:08.734Z,15.88
2022-10-11T23:28:37.110Z,14.20
2022-10-11T23:31:13.664Z,15.45
2022-10-11T23:33:41.617Z,17.03
2022-10-11T23:36:17.556Z,17.02
2022-10-11T23:38:45.293Z,22.65
2022-10-11T23:41:13.092Z,25.67
2022-10-11T23:43:41.768Z,28.42
2022-10-11T23:46:09.375Z,28.60
2022-10-11T23:48:38.526Z,26.25
2022-10-11T23:51:06.958Z,27.67
2022-10-11T23:53:34.856Z,22.90
2022-10-11T23:56:03.528Z,16.62
2022-10-11T23:58:33.225Z,16.60
